sensor_id;sensor_type;location;lat;lon;timestamp;pressure;altitude;pressure_sealevel;temperature;humidity
62926;BME280;55732;52.248;-0.844;2023-05-02T00:00:42;101461.34;;;10.71;79.13
62926;BME280;55732;52.248;-0.844;2023-05-02T00:03:10;101462.67;;;10.66;79.48
62926;BME280;55732;52.248;-0.844;2023-05-02T00:05:36;101456.05;;;10.57;79.37
62926;BME280;55732;52.248;-0.844;2023-05-02T00:08:01;101461.40;;;10.48;79.27
62926;BME280;55732;52.248;-0.844;2023-05-02T00:10:27;101462.15;;;10.39;79.06
62926;BME280;55732;52.248;-0.844;2023-05-02T00:12:52;101462.87;;;10.27;79.21
62926;BME280;55732;52.248;-0.844;2023-05-02T00:15:17;101460.39;;;10.15;79.74
62926;BME280;55732;52.248;-0.844;2023-05-02T00:17:43;101464.98;;;10.05;79.66
62926;BME280;55732;52.248;-0.844;2023-05-02T00:20:09;101466.28;;;9.97;79.81
62926;BME280;55732;52.248;-0.844;2023-05-02T00:22:36;101466.88;;;9.91;79.81
62926;BME280;55732;52.248;-0.844;2023-05-02T00:25:01;101473.65;;;9.86;80.00
62926;BME280;55732;52.248;-0.844;2023-05-02T00:27:28;101471.11;;;9.82;80.01
62926;BME280;55732;52.248;-0.844;2023-05-02T00:29:54;101469.85;;;9.78;80.08
62926;BME280;55732;52.248;-0.844;2023-05-02T00:32:19;101469.61;;;9.75;80.37
62926;BME280;55732;52.248;-0.844;2023-05-02T00:34:45;101472.18;;;9.71;80.50
62926;BME280;55732;52.248;-0.844;2023-05-02T00:37:10;101474.94;;;9.68;80.57
62926;BME280;55732;52.248;-0.844;2023-05-02T00:39:37;101476.10;;;9.64;80.42
62926;BME280;55732;52.248;-0.844;2023-05-02T00:42:02;101472.15;;;9.59;80.54
62926;BME280;55732;52.248;-0.844;2023-05-02T00:44:28;101468.75;;;9.55;81.04
62926;BME280;55732;52.248;-0.844;2023-05-02T00:46:57;101466.86;;;9.48;81.15
62926;BME280;55732;52.248;-0.844;2023-05-02T00:49:24;101469.77;;;9.43;80.97
62926;BME280;55732;52.248;-0.844;2023-05-02T00:51:49;101469.71;;;9.39;81.03
62926;BME280;55732;52.248;-0.844;2023-05-02T00:54:15;101472.13;;;9.37;81.22
62926;BME280;55732;52.248;-0.844;2023-05-02T00:56:40;101474.35;;;9.34;81.39
62926;BME280;55732;52.248;-0.844;2023-05-02T00:59:07;101474.86;;;9.33;81.37
62926;BME280;55732;52.248;-0.844;2023-05-02T01:10:00;101479.91;;;9.21;82.01
62926;BME280;55732;52.248;-0.844;2023-05-02T01:12:36;101482.55;;;9.20;82.04
62926;BME280;55732;52.248;-0.844;2023-05-02T01:15:08;101490.29;;;9.22;81.95
62926;BME280;55732;52.248;-0.844;2023-05-02T01:17:36;101496.98;;;9.23;82.03
62926;BME280;55732;52.248;-0.844;2023-05-02T01:20:04;101497.69;;;9.23;82.21
62926;BME280;55732;52.248;-0.844;2023-05-02T01:22:32;101497.73;;;9.24;81.70
62926;BME280;55732;52.248;-0.844;2023-05-02T01:30:21;101506.11;;;9.22;81.74
62926;BME280;55732;52.248;-0.844;2023-05-02T01:32:50;101510.46;;;9.19;81.88
62926;BME280;55732;52.248;-0.844;2023-05-02T01:35:16;101514.48;;;9.17;81.67
62926;BME280;55732;52.248;-0.844;2023-05-02T01:37:47;101517.49;;;9.19;81.40
62926;BME280;55732;52.248;-0.844;2023-05-02T01:40:16;101517.17;;;9.22;81.42
62926;BME280;55732;52.248;-0.844;2023-05-02T01:42:43;101518.80;;;9.24;81.48
62926;BME280;55732;52.248;-0.844;2023-05-02T01:45:11;101521.66;;;9.26;81.32
62926;BME280;55732;52.248;-0.844;2023-05-02T01:47:38;101524.20;;;9.30;81.14
62926;BME280;55732;52.248;-0.844;2023-05-02T01:50:06;101525.11;;;9.32;81.15
62926;BME280;55732;52.248;-0.844;2023-05-02T01:52:36;101530.92;;;9.32;81.16
62926;BME280;55732;52.248;-0.844;2023-05-02T01:55:04;101531.27;;;9.32;81.07
62926;BME280;55732;52.248;-0.844;2023-05-02T01:57:31;101527.39;;;9.32;81.20
62926;BME280;55732;52.248;-0.844;2023-05-02T01:59:57;101527.22;;;9.33;81.03
62926;BME280;55732;52.248;-0.844;2023-05-02T02:02:25;101536.42;;;9.36;81.03
62926;BME280;55732;52.248;-0.844;2023-05-02T02:04:53;101540.36;;;9.39;80.97
62926;BME280;55732;52.248;-0.844;2023-05-02T02:07:20;101545.69;;;9.41;80.68
62926;BME280;55732;52.248;-0.844;2023-05-02T02:09:45;101549.39;;;9.42;80.83
62926;BME280;55732;52.248;-0.844;2023-05-02T02:12:16;101549.92;;;9.42;80.73
62926;BME280;55732;52.248;-0.844;2023-05-02T02:14:49;101550.64;;;9.44;80.75
62926;BME280;55732;52.248;-0.844;2023-05-02T02:17:35;101552.62;;;9.47;80.83
62926;BME280;55732;52.248;-0.844;2023-05-02T02:20:04;101557.41;;;9.49;80.80
62926;BME280;55732;52.248;-0.844;2023-05-02T02:22:33;101559.17;;;9.49;80.85
62926;BME280;55732;52.248;-0.844;2023-05-02T02:25:03;101564.27;;;9.50;80.83
62926;BME280;55732;52.248;-0.844;2023-05-02T02:27:30;101565.70;;;9.50;80.80
62926;BME280;55732;52.248;-0.844;2023-05-02T02:29:55;101571.55;;;9.52;80.61
62926;BME280;55732;52.248;-0.844;2023-05-02T02:32:21;101576.33;;;9.54;80.56
62926;BME280;55732;52.248;-0.844;2023-05-02T02:34:46;101572.65;;;9.54;80.80
62926;BME280;55732;52.248;-0.844;2023-05-02T02:37:18;101582.34;;;9.56;80.69
62926;BME280;55732;52.248;-0.844;2023-05-02T02:40:07;101586.73;;;9.56;80.66
62926;BME280;55732;52.248;-0.844;2023-05-02T02:42:48;101590.11;;;9.58;80.42
62926;BME280;55732;52.248;-0.844;2023-05-02T02:45:42;101587.50;;;9.60;80.53
62926;BME280;55732;52.248;-0.844;2023-05-02T02:48:36;101594.39;;;9.61;80.45
62926;BME280;55732;52.248;-0.844;2023-05-02T02:51:59;101599.00;;;9.63;80.54
62926;BME280;55732;52.248;-0.844;2023-05-02T02:54:39;101599.20;;;9.64;80.45
62926;BME280;55732;52.248;-0.844;2023-05-02T02:57:26;101595.84;;;9.63;80.42
62926;BME280;55732;52.248;-0.844;2023-05-02T03:00:07;101593.05;;;9.64;80.47
62926;BME280;55732;52.248;-0.844;2023-05-02T03:02:36;101596.77;;;9.65;80.23
62926;BME280;55732;52.248;-0.844;2023-05-02T03:05:03;101594.34;;;9.67;80.21
62926;BME280;55732;52.248;-0.844;2023-05-02T03:07:30;101598.75;;;9.69;80.32
62926;BME280;55732;52.248;-0.844;2023-05-02T03:09:55;101594.36;;;9.69;80.39
62926;BME280;55732;52.248;-0.844;2023-05-02T03:12:21;101590.86;;;9.70;80.21
62926;BME280;55732;52.248;-0.844;2023-05-02T03:14:47;101591.58;;;9.71;80.38
62926;BME280;55732;52.248;-0.844;2023-05-02T03:17:12;101595.58;;;9.68;80.40
62926;BME280;55732;52.248;-0.844;2023-05-02T03:19:37;101596.06;;;9.65;80.71
62926;BME280;55732;52.248;-0.844;2023-05-02T03:22:03;101594.41;;;9.62;80.70
62926;BME280;55732;52.248;-0.844;2023-05-02T03:24:29;101599.09;;;9.59;80.58
62926;BME280;55732;52.248;-0.844;2023-05-02T03:26:56;101593.08;;;9.57;80.62
62926;BME280;55732;52.248;-0.844;2023-05-02T03:29:23;101599.91;;;9.54;80.71
62926;BME280;55732;52.248;-0.844;2023-05-02T03:31:49;101603.04;;;9.53;80.93
62926;BME280;55732;52.248;-0.844;2023-05-02T03:34:15;101603.36;;;9.52;81.17
62926;BME280;55732;52.248;-0.844;2023-05-02T03:36:41;101605.27;;;9.51;81.31
62926;BME280;55732;52.248;-0.844;2023-05-02T03:39:06;101603.30;;;9.49;81.17
62926;BME280;55732;52.248;-0.844;2023-05-02T03:41:31;101603.61;;;9.47;81.61
62926;BME280;55732;52.248;-0.844;2023-05-02T03:43:57;101605.14;;;9.45;81.62
62926;BME280;55732;52.248;-0.844;2023-05-02T03:46:22;101609.88;;;9.44;81.58
62926;BME280;55732;52.248;-0.844;2023-05-02T03:48:48;101617.62;;;9.44;81.72
62926;BME280;55732;52.248;-0.844;2023-05-02T03:51:13;101610.15;;;9.39;81.96
62926;BME280;55732;52.248;-0.844;2023-05-02T03:53:39;101617.39;;;9.40;81.83
62926;BME280;55732;52.248;-0.844;2023-05-02T03:56:05;101616.12;;;9.39;81.72
62926;BME280;55732;52.248;-0.844;2023-05-02T03:58:32;101613.63;;;9.37;81.97
62926;BME280;55732;52.248;-0.844;2023-05-02T04:00:57;101616.57;;;9.35;82.01
62926;BME280;55732;52.248;-0.844;2023-05-02T04:03:23;101621.82;;;9.34;81.96
62926;BME280;55732;52.248;-0.844;2023-05-02T04:05:48;101617.91;;;9.32;82.15
62926;BME280;55732;52.248;-0.844;2023-05-02T04:08:16;101625.59;;;9.29;82.08
62926;BME280;55732;52.248;-0.844;2023-05-02T04:10:42;101627.33;;;9.29;82.16
62926;BME280;55732;52.248;-0.844;2023-05-02T04:13:07;101632.38;;;9.26;82.37
62926;BME280;55732;52.248;-0.844;2023-05-02T04:15:32;101636.90;;;9.25;82.25
62926;BME280;55732;52.248;-0.844;2023-05-02T04:17:58;101642.66;;;9.23;81.96
62926;BME280;55732;52.248;-0.844;2023-05-02T04:20:23;101646.70;;;9.22;81.96
62926;BME280;55732;52.248;-0.844;2023-05-02T04:22:49;101644.23;;;9.22;81.94
62926;BME280;55732;52.248;-0.844;2023-05-02T04:25:15;101647.19;;;9.21;81.88
62926;BME280;55732;52.248;-0.844;2023-05-02T04:27:41;101651.73;;;9.19;81.87
62926;BME280;55732;52.248;-0.844;2023-05-02T04:30:07;101652.10;;;9.20;81.75
62926;BME280;55732;52.248;-0.844;2023-05-02T04:32:34;101657.73;;;9.21;81.82
62926;BME280;55732;52.248;-0.844;2023-05-02T04:34:59;101657.73;;;9.20;81.75
62926;BME280;55732;52.248;-0.844;2023-05-02T04:37:25;101657.20;;;9.19;81.63
62926;BME280;55732;52.248;-0.844;2023-05-02T04:39:50;101653.11;;;9.18;81.57
62926;BME280;55732;52.248;-0.844;2023-05-02T04:42:15;101653.77;;;9.16;81.50
62926;BME280;55732;52.248;-0.844;2023-05-02T04:44:41;101653.96;;;9.16;81.40
62926;BME280;55732;52.248;-0.844;2023-05-02T04:47:06;101660.66;;;9.18;81.36
62926;BME280;55732;52.248;-0.844;2023-05-02T04:49:32;101661.59;;;9.20;81.37
62926;BME280;55732;52.248;-0.844;2023-05-02T04:51:57;101660.38;;;9.22;81.20
62926;BME280;55732;52.248;-0.844;2023-05-02T04:54:23;101660.05;;;9.23;81.27
62926;BME280;55732;52.248;-0.844;2023-05-02T04:56:48;101663.02;;;9.22;81.29
62926;BME280;55732;52.248;-0.844;2023-05-02T04:59:14;101670.95;;;9.23;81.13
62926;BME280;55732;52.248;-0.844;2023-05-02T05:01:39;101671.98;;;9.22;81.10
62926;BME280;55732;52.248;-0.844;2023-05-02T05:04:05;101673.90;;;9.20;81.20
62926;BME280;55732;52.248;-0.844;2023-05-02T05:06:30;101676.36;;;9.20;81.40
62926;BME280;55732;52.248;-0.844;2023-05-02T05:08:56;101674.96;;;9.21;81.40
62926;BME280;55732;52.248;-0.844;2023-05-02T05:11:21;101676.75;;;9.23;81.47
62926;BME280;55732;52.248;-0.844;2023-05-02T05:13:47;101677.11;;;9.23;81.18
62926;BME280;55732;52.248;-0.844;2023-05-02T05:16:13;101683.25;;;9.23;81.05
62926;BME280;55732;52.248;-0.844;2023-05-02T05:18:38;101688.20;;;9.24;81.11
62926;BME280;55732;52.248;-0.844;2023-05-02T05:21:08;101687.69;;;9.24;81.19
62926;BME280;55732;52.248;-0.844;2023-05-02T05:23:35;101690.02;;;9.27;81.24
62926;BME280;55732;52.248;-0.844;2023-05-02T05:26:11;101689.20;;;9.29;81.32
62926;BME280;55732;52.248;-0.844;2023-05-02T05:28:37;101688.38;;;9.31;81.28
62926;BME280;55732;52.248;-0.844;2023-05-02T05:31:06;101696.09;;;9.30;81.24
62926;BME280;55732;52.248;-0.844;2023-05-02T05:33:33;101698.54;;;9.30;81.17
62926;BME280;55732;52.248;-0.844;2023-05-02T05:36:17;101700.28;;;9.29;81.26
62926;BME280;55732;52.248;-0.844;2023-05-02T05:38:42;101696.95;;;9.29;81.32
62926;BME280;55732;52.248;-0.844;2023-05-02T05:41:08;101700.65;;;9.30;81.15
62926;BME280;55732;52.248;-0.844;2023-05-02T05:43:35;101702.41;;;9.30;81.37
62926;BME280;55732;52.248;-0.844;2023-05-02T05:46:00;101705.60;;;9.30;81.44
62926;BME280;55732;52.248;-0.844;2023-05-02T05:48:27;101712.56;;;9.29;81.47
62926;BME280;55732;52.248;-0.844;2023-05-02T05:50:52;101713.73;;;9.26;81.60
62926;BME280;55732;52.248;-0.844;2023-05-02T05:53:18;101711.61;;;9.25;81.54
62926;BME280;55732;52.248;-0.844;2023-05-02T05:55:43;101713.98;;;9.28;81.53
62926;BME280;55732;52.248;-0.844;2023-05-02T05:58:09;101721.11;;;9.34;81.35
62926;BME280;55732;52.248;-0.844;2023-05-02T06:00:36;101723.50;;;9.38;81.47
62926;BME280;55732;52.248;-0.844;2023-05-02T06:03:02;101724.89;;;9.46;81.00
62926;BME280;55732;52.248;-0.844;2023-05-02T06:05:28;101723.45;;;9.52;80.76
62926;BME280;55732;52.248;-0.844;2023-05-02T06:07:54;101726.04;;;9.67;80.56
62926;BME280;55732;52.248;-0.844;2023-05-02T06:10:20;101727.25;;;9.83;80.03
62926;BME280;55732;52.248;-0.844;2023-05-02T06:12:45;101723.51;;;9.98;79.91
62926;BME280;55732;52.248;-0.844;2023-05-02T06:15:10;101730.67;;;10.06;79.59
62926;BME280;55732;52.248;-0.844;2023-05-02T06:17:36;101734.92;;;10.07;79.31
62926;BME280;55732;52.248;-0.844;2023-05-02T06:20:01;101728.32;;;10.01;79.38
62926;BME280;55732;52.248;-0.844;2023-05-02T06:22:27;101729.61;;;9.96;79.58
62926;BME280;55732;52.248;-0.844;2023-05-02T06:24:53;101727.93;;;9.90;79.72
62926;BME280;55732;52.248;-0.844;2023-05-02T06:27:18;101737.09;;;9.91;79.52
62926;BME280;55732;52.248;-0.844;2023-05-02T06:29:44;101737.48;;;9.93;79.52
62926;BME280;55732;52.248;-0.844;2023-05-02T06:32:09;101746.91;;;10.07;79.20
62926;BME280;55732;52.248;-0.844;2023-05-02T06:34:34;101750.29;;;10.26;78.89
62926;BME280;55732;52.248;-0.844;2023-05-02T06:37:00;101748.33;;;10.44;78.53
62926;BME280;55732;52.248;-0.844;2023-05-02T06:39:25;101745.42;;;10.69;77.86
62926;BME280;55732;52.248;-0.844;2023-05-02T06:41:56;101741.71;;;11.01;77.37
62926;BME280;55732;52.248;-0.844;2023-05-02T06:44:22;101745.41;;;11.12;76.31
62926;BME280;55732;52.248;-0.844;2023-05-02T06:46:47;101745.88;;;11.20;76.11
62926;BME280;55732;52.248;-0.844;2023-05-02T06:49:13;101750.12;;;11.33;75.05
62926;BME280;55732;52.248;-0.844;2023-05-02T06:51:38;101748.53;;;11.32;74.68
62926;BME280;55732;52.248;-0.844;2023-05-02T06:54:05;101751.27;;;11.27;74.15
62926;BME280;55732;52.248;-0.844;2023-05-02T06:56:30;101757.17;;;11.32;74.03
62926;BME280;55732;52.248;-0.844;2023-05-02T06:58:56;101756.92;;;11.40;73.75
62926;BME280;55732;52.248;-0.844;2023-05-02T07:01:21;101754.74;;;11.35;73.51
62926;BME280;55732;52.248;-0.844;2023-05-02T07:03:46;101757.53;;;11.34;73.06
62926;BME280;55732;52.248;-0.844;2023-05-02T07:06:12;101758.02;;;11.42;72.95
62926;BME280;55732;52.248;-0.844;2023-05-02T07:08:37;101754.14;;;11.81;71.90
62926;BME280;55732;52.248;-0.844;2023-05-02T07:11:03;101756.29;;;12.12;71.20
62926;BME280;55732;52.248;-0.844;2023-05-02T07:13:28;101757.54;;;12.29;70.91
62926;BME280;55732;52.248;-0.844;2023-05-02T07:15:54;101761.76;;;12.45;70.23
62926;BME280;55732;52.248;-0.844;2023-05-02T07:18:19;101762.09;;;12.80;69.56
62926;BME280;55732;52.248;-0.844;2023-05-02T07:20:45;101765.20;;;13.15;67.49
62926;BME280;55732;52.248;-0.844;2023-05-02T07:23:11;101768.29;;;13.52;66.45
62926;BME280;55732;52.248;-0.844;2023-05-02T07:25:36;101771.06;;;13.74;66.08
62926;BME280;55732;52.248;-0.844;2023-05-02T07:28:04;101768.70;;;14.02;65.67
62926;BME280;55732;52.248;-0.844;2023-05-02T07:30:29;101773.56;;;14.23;64.63
62926;BME280;55732;52.248;-0.844;2023-05-02T07:32:55;101774.59;;;14.17;64.19
62926;BME280;55732;52.248;-0.844;2023-05-02T07:35:20;101777.94;;;14.08;64.08
62926;BME280;55732;52.248;-0.844;2023-05-02T07:37:46;101779.66;;;13.96;63.93
62926;BME280;55732;52.248;-0.844;2023-05-02T07:40:11;101782.39;;;13.74;64.04
62926;BME280;55732;52.248;-0.844;2023-05-02T07:42:36;101781.73;;;13.52;64.21
62926;BME280;55732;52.248;-0.844;2023-05-02T07:45:02;101781.52;;;13.43;64.18
62926;BME280;55732;52.248;-0.844;2023-05-02T07:47:28;101777.67;;;13.26;64.22
62926;BME280;55732;52.248;-0.844;2023-05-02T07:49:54;101779.23;;;13.02;64.90
62926;BME280;55732;52.248;-0.844;2023-05-02T07:52:20;101779.67;;;12.91;65.20
62926;BME280;55732;52.248;-0.844;2023-05-02T07:54:49;101781.70;;;12.80;65.28
62926;BME280;55732;52.248;-0.844;2023-05-02T07:57:15;101789.55;;;12.68;65.70
62926;BME280;55732;52.248;-0.844;2023-05-02T07:59:41;101791.45;;;12.64;66.04
62926;BME280;55732;52.248;-0.844;2023-05-02T08:02:06;101791.19;;;12.55;66.38
62926;BME280;55732;52.248;-0.844;2023-05-02T08:04:33;101790.40;;;12.47;66.64
62926;BME280;55732;52.248;-0.844;2023-05-02T08:06:58;101794.92;;;12.42;66.90
62926;BME280;55732;52.248;-0.844;2023-05-02T08:09:25;101795.35;;;12.48;66.68
62926;BME280;55732;52.248;-0.844;2023-05-02T08:11:50;101796.27;;;12.51;66.25
62926;BME280;55732;52.248;-0.844;2023-05-02T08:14:16;101798.56;;;12.51;66.45
62926;BME280;55732;52.248;-0.844;2023-05-02T08:16:41;101796.70;;;12.58;66.59
62926;BME280;55732;52.248;-0.844;2023-05-02T08:19:07;101798.42;;;12.72;66.19
62926;BME280;55732;52.248;-0.844;2023-05-02T08:21:33;101798.62;;;12.74;65.82
62926;BME280;55732;52.248;-0.844;2023-05-02T08:23:59;101803.54;;;12.71;65.87
62926;BME280;55732;52.248;-0.844;2023-05-02T08:26:24;101803.88;;;12.69;65.87
62926;BME280;55732;52.248;-0.844;2023-05-02T08:28:50;101804.20;;;12.66;65.89
62926;BME280;55732;52.248;-0.844;2023-05-02T08:31:16;101811.92;;;12.61;66.03
62926;BME280;55732;52.248;-0.844;2023-05-02T08:33:42;101818.70;;;12.51;66.45
62926;BME280;55732;52.248;-0.844;2023-05-02T08:36:12;101817.36;;;12.41;66.52
62926;BME280;55732;52.248;-0.844;2023-05-02T08:38:37;101817.40;;;12.29;66.75
62926;BME280;55732;52.248;-0.844;2023-05-02T08:41:09;101818.54;;;12.20;66.96
62926;BME280;55732;52.248;-0.844;2023-05-02T08:43:37;101819.94;;;12.19;67.11
62926;BME280;55732;52.248;-0.844;2023-05-02T08:46:04;101818.50;;;12.17;67.23
62926;BME280;55732;52.248;-0.844;2023-05-02T08:48:32;101824.72;;;12.19;67.66
62926;BME280;55732;52.248;-0.844;2023-05-02T08:51:02;101826.64;;;12.18;67.56
62926;BME280;55732;52.248;-0.844;2023-05-02T08:53:31;101827.14;;;12.15;67.77
62926;BME280;55732;52.248;-0.844;2023-05-02T08:55:58;101830.51;;;12.17;67.77
62926;BME280;55732;52.248;-0.844;2023-05-02T08:58:24;101829.78;;;12.14;67.66
62926;BME280;55732;52.248;-0.844;2023-05-02T09:00:50;101829.10;;;12.18;67.99
62926;BME280;55732;52.248;-0.844;2023-05-02T09:03:33;101827.92;;;12.22;67.81
62926;BME280;55732;52.248;-0.844;2023-05-02T09:06:06;101825.14;;;12.24;67.84
62926;BME280;55732;52.248;-0.844;2023-05-02T09:08:36;101824.30;;;12.30;67.64
62926;BME280;55732;52.248;-0.844;2023-05-02T09:11:02;101828.16;;;12.44;67.65
62926;BME280;55732;52.248;-0.844;2023-05-02T09:16:13;101826.02;;;12.75;66.35
62926;BME280;55732;52.248;-0.844;2023-05-02T09:18:41;101821.33;;;13.03;66.11
62926;BME280;55732;52.248;-0.844;2023-05-02T09:21:21;101820.24;;;13.42;65.48
62926;BME280;55732;52.248;-0.844;2023-05-02T09:26:23;101819.58;;;13.75;64.28
62926;BME280;55732;52.248;-0.844;2023-05-02T09:28:56;101822.83;;;13.89;63.52
62926;BME280;55732;52.248;-0.844;2023-05-02T09:31:23;101823.59;;;14.01;62.72
62926;BME280;55732;52.248;-0.844;2023-05-02T09:33:52;101826.46;;;14.08;61.96
62926;BME280;55732;52.248;-0.844;2023-05-02T09:36:19;101821.34;;;14.15;61.59
62926;BME280;55732;52.248;-0.844;2023-05-02T09:38:46;101819.05;;;14.73;60.81
62926;BME280;55732;52.248;-0.844;2023-05-02T09:41:12;101814.48;;;14.99;60.26
62926;BME280;55732;52.248;-0.844;2023-05-02T09:43:39;101815.01;;;15.10;59.87
62926;BME280;55732;52.248;-0.844;2023-05-02T09:46:09;101820.65;;;15.61;58.85
62926;BME280;55732;52.248;-0.844;2023-05-02T09:48:55;101829.48;;;16.26;56.94
62926;BME280;55732;52.248;-0.844;2023-05-02T09:51:22;101826.38;;;16.45;56.43
62926;BME280;55732;52.248;-0.844;2023-05-02T09:53:48;101823.13;;;16.53;55.34
62926;BME280;55732;52.248;-0.844;2023-05-02T09:56:14;101824.10;;;16.97;54.96
62926;BME280;55732;52.248;-0.844;2023-05-02T09:58:40;101828.66;;;17.96;53.98
62926;BME280;55732;52.248;-0.844;2023-05-02T10:01:05;101833.92;;;18.47;51.34
62926;BME280;55732;52.248;-0.844;2023-05-02T10:03:31;101840.04;;;18.29;50.51
62926;BME280;55732;52.248;-0.844;2023-05-02T10:06:01;101841.36;;;17.58;51.77
62926;BME280;55732;52.248;-0.844;2023-05-02T10:08:27;101842.19;;;17.06;53.30
62926;BME280;55732;52.248;-0.844;2023-05-02T10:10:57;101835.43;;;16.82;53.55
62926;BME280;55732;52.248;-0.844;2023-05-02T10:13:24;101831.23;;;16.70;53.76
62926;BME280;55732;52.248;-0.844;2023-05-02T10:16:01;101830.89;;;17.34;52.97
62926;BME280;55732;52.248;-0.844;2023-05-02T10:21:10;101838.51;;;17.79;51.43
62926;BME280;55732;52.248;-0.844;2023-05-02T10:23:40;101840.84;;;17.57;52.26
62926;BME280;55732;52.248;-0.844;2023-05-02T10:26:07;101836.34;;;17.46;52.58
62926;BME280;55732;52.248;-0.844;2023-05-02T10:28:33;101836.66;;;17.83;52.43
62926;BME280;55732;52.248;-0.844;2023-05-02T10:30:59;101839.75;;;17.79;52.02
62926;BME280;55732;52.248;-0.844;2023-05-02T10:33:26;101837.56;;;17.46;52.62
62926;BME280;55732;52.248;-0.844;2023-05-02T10:35:52;101840.04;;;17.28;52.42
62926;BME280;55732;52.248;-0.844;2023-05-02T10:38:21;101840.39;;;17.30;52.91
62926;BME280;55732;52.248;-0.844;2023-05-02T10:41:11;101843.38;;;17.33;53.34
62926;BME280;55732;52.248;-0.844;2023-05-02T10:43:37;101852.30;;;17.71;52.66
62926;BME280;55732;52.248;-0.844;2023-05-02T10:46:36;101854.21;;;17.76;52.39
62926;BME280;55732;52.248;-0.844;2023-05-02T10:51:34;101858.55;;;17.85;52.17
62926;BME280;55732;52.248;-0.844;2023-05-02T11:01:53;101867.69;;;16.99;53.77
62926;BME280;55732;52.248;-0.844;2023-05-02T11:04:19;101867.83;;;17.04;53.65
62926;BME280;55732;52.248;-0.844;2023-05-02T11:11:49;101872.03;;;17.35;53.13
62926;BME280;55732;52.248;-0.844;2023-05-02T11:19:29;101871.50;;;16.86;54.04
62926;BME280;55732;52.248;-0.844;2023-05-02T11:24:47;101876.61;;;16.63;54.44
62926;BME280;55732;52.248;-0.844;2023-05-02T11:32:24;101877.10;;;16.32;55.39
62926;BME280;55732;52.248;-0.844;2023-05-02T11:34:51;101874.08;;;16.32;55.77
62926;BME280;55732;52.248;-0.844;2023-05-02T11:37:19;101877.31;;;16.23;56.25
62926;BME280;55732;52.248;-0.844;2023-05-02T11:39:45;101881.44;;;16.10;56.50
62926;BME280;55732;52.248;-0.844;2023-05-02T11:42:30;101888.58;;;16.01;56.62
62926;BME280;55732;52.248;-0.844;2023-05-02T11:44:57;101884.17;;;15.88;56.71
62926;BME280;55732;52.248;-0.844;2023-05-02T11:47:25;101885.27;;;15.70;57.12
62926;BME280;55732;52.248;-0.844;2023-05-02T11:49:51;101890.59;;;15.47;57.66
62926;BME280;55732;52.248;-0.844;2023-05-02T11:52:16;101893.79;;;15.28;58.34
62926;BME280;55732;52.248;-0.844;2023-05-02T11:54:42;101892.35;;;15.12;58.40
62926;BME280;55732;52.248;-0.844;2023-05-02T11:57:07;101898.36;;;14.96;59.02
62926;BME280;55732;52.248;-0.844;2023-05-02T11:59:53;101905.61;;;14.88;59.22
62926;BME280;55732;52.248;-0.844;2023-05-02T12:02:19;101904.73;;;14.85;59.70
62926;BME280;55732;52.248;-0.844;2023-05-02T12:04:45;101909.15;;;14.82;59.81
62926;BME280;55732;52.248;-0.844;2023-05-02T12:07:11;101918.71;;;14.77;59.90
62926;BME280;55732;52.248;-0.844;2023-05-02T12:09:49;101921.35;;;14.70;60.15
62926;BME280;55732;52.248;-0.844;2023-05-02T12:12:20;101918.86;;;14.64;60.25
62926;BME280;55732;52.248;-0.844;2023-05-02T12:14:46;101913.89;;;14.62;60.27
62926;BME280;55732;52.248;-0.844;2023-05-02T12:17:11;101917.95;;;14.64;60.11
62926;BME280;55732;52.248;-0.844;2023-05-02T12:19:37;101918.16;;;14.69;60.01
62926;BME280;55732;52.248;-0.844;2023-05-02T12:22:03;101915.86;;;14.76;59.90
62926;BME280;55732;52.248;-0.844;2023-05-02T12:24:29;101921.73;;;14.81;60.04
62926;BME280;55732;52.248;-0.844;2023-05-02T12:27:14;101923.36;;;14.85;60.25
62926;BME280;55732;52.248;-0.844;2023-05-02T12:29:40;101918.91;;;14.88;60.49
62926;BME280;55732;52.248;-0.844;2023-05-02T12:32:06;101911.83;;;14.87;60.64
62926;BME280;55732;52.248;-0.844;2023-05-02T12:34:33;101919.80;;;14.85;60.83
62926;BME280;55732;52.248;-0.844;2023-05-02T12:37:00;101920.13;;;14.75;60.96
62926;BME280;55732;52.248;-0.844;2023-05-02T12:39:38;101917.45;;;14.71;61.15
62926;BME280;55732;52.248;-0.844;2023-05-02T12:42:29;101919.39;;;14.68;61.19
62926;BME280;55732;52.248;-0.844;2023-05-02T12:44:56;101919.19;;;14.61;61.32
62926;BME280;55732;52.248;-0.844;2023-05-02T12:47:22;101913.66;;;14.50;61.61
62926;BME280;55732;52.248;-0.844;2023-05-02T12:49:49;101910.77;;;14.41;62.08
62926;BME280;55732;52.248;-0.844;2023-05-02T12:52:51;101919.08;;;14.37;62.18
62926;BME280;55732;52.248;-0.844;2023-05-02T12:55:25;101915.30;;;14.29;62.53
62926;BME280;55732;52.248;-0.844;2023-05-02T12:58:03;101909.41;;;14.20;62.96
62926;BME280;55732;52.248;-0.844;2023-05-02T13:00:34;101909.71;;;14.11;63.23
62926;BME280;55732;52.248;-0.844;2023-05-02T13:03:00;101913.26;;;14.11;63.23
62926;BME280;55732;52.248;-0.844;2023-05-02T13:05:26;101907.82;;;14.20;63.23
62926;BME280;55732;52.248;-0.844;2023-05-02T13:07:51;101905.92;;;14.31;63.03
62926;BME280;55732;52.248;-0.844;2023-05-02T13:10:17;101910.23;;;14.41;63.21
62926;BME280;55732;52.248;-0.844;2023-05-02T13:12:45;101916.67;;;14.48;63.08
62926;BME280;55732;52.248;-0.844;2023-05-02T13:15:12;101918.09;;;14.48;62.97
62926;BME280;55732;52.248;-0.844;2023-05-02T13:17:38;101918.45;;;14.52;62.99
62926;BME280;55732;52.248;-0.844;2023-05-02T13:20:04;101919.89;;;14.60;62.76
62926;BME280;55732;52.248;-0.844;2023-05-02T13:22:30;101923.84;;;14.70;62.74
62926;BME280;55732;52.248;-0.844;2023-05-02T13:24:55;101916.77;;;14.76;62.62
62926;BME280;55732;52.248;-0.844;2023-05-02T13:27:22;101906.86;;;14.88;62.58
62926;BME280;55732;52.248;-0.844;2023-05-02T13:29:48;101904.93;;;15.01;62.51
62926;BME280;55732;52.248;-0.844;2023-05-02T13:32:14;101907.09;;;15.19;62.24
62926;BME280;55732;52.248;-0.844;2023-05-02T13:34:41;101900.17;;;15.29;61.73
62926;BME280;55732;52.248;-0.844;2023-05-02T13:37:06;101900.88;;;15.35;60.92
62926;BME280;55732;52.248;-0.844;2023-05-02T13:39:32;101901.79;;;15.43;60.83